CYT44S UBBB-LDDU
Flight info
| Callsign | CYT44S |
|---|---|
| Flight time | N/A |
| Altitude | 38000 |
| Route | RASAM N199 LUSAL M747 VERCA M737 DISKA DCT BANUT/K0900F380 B147 UNAMI G487 ODIRA/N0484F380 UW96 SIN UW90 INB UL746 EVGEG L746 ODERO T86 MATEL L744 WRN N605 GOL DCT NISVA DCT POD DCT TIBRI L187 MOKUN |
| Aircraft | B77L/H-SDE1E2E3FGHIJ2J3J4J5M1RWXY/LB1D1 |
Departure
| Time | 2025-09-09 14:21 |
|---|---|
| Airport | Heydar Aliyev International Airport (UBBB) |
Arrival
| Time | N/A |
|---|---|
| Airport | Dubrovnik Ruđer Bošković Airport (LDDU) |
| Time | Latitude | Longitude | Altitude | Speed | Heading |
|---|---|---|---|---|---|
| 2025-09-09 13:49 | 40.46558 | 50.05656 | 19 ft | 0 kts | 358° |
| 2025-09-09 14:09 | 40.46494 | 50.05648 | 22 ft | 3 kts | 11° |
| 2025-09-09 14:09 | 40.46482 | 50.05645 | 23 ft | 1 kts | 9° |
| 2025-09-09 14:10 | 40.46479 | 50.05644 | 23 ft | 0 kts | 9° |
| 2025-09-09 14:12 | 40.46497 | 50.05647 | 22 ft | 2 kts | 6° |
| 2025-09-09 14:12 | 40.46514 | 50.05648 | 22 ft | 0 kts | 2° |
| 2025-09-09 14:15 | 40.46539 | 50.05694 | 19 ft | 13 kts | 75° |
| 2025-09-09 14:16 | 40.46523 | 50.05930 | 19 ft | 11 kts | 115° |
| 2025-09-09 14:16 | 40.46190 | 50.05966 | 19 ft | 30 kts | 180° |
| 2025-09-09 14:17 | 40.45839 | 50.06070 | 19 ft | 20 kts | 138° |
| 2025-09-09 14:17 | 40.45750 | 50.06109 | 19 ft | 0 kts | 170° |
| 2025-09-09 14:18 | 40.45737 | 50.06111 | 19 ft | 10 kts | 171° |
| 2025-09-09 14:19 | 40.45697 | 50.06320 | 15 ft | 11 kts | 32° |
| 2025-09-09 14:19 | 40.46085 | 50.06314 | 15 ft | 108 kts | 359° |
| 2025-09-09 14:19 | 40.47209 | 50.06303 | 183 ft | 200 kts | 358° |
| 2025-09-09 14:20 | 40.53629 | 50.05008 | 4059 ft | 263 kts | 351° |
| 2025-09-09 14:21 | 40.57269 | 50.04240 | 6130 ft | 274 kts | 351° |
| 2025-09-09 14:21 | 40.59115 | 50.03552 | 7025 ft | 279 kts | 332° |
| 2025-09-09 14:22 | 40.62015 | 49.97051 | 8123 ft | 299 kts | 269° |
| 2025-09-09 14:22 | 40.61956 | 49.94367 | 8033 ft | 287 kts | 265° |
| 2025-09-09 14:23 | 40.61778 | 49.89248 | 8008 ft | 282 kts | 267° |
| 2025-09-09 14:23 | 40.61792 | 49.84004 | 8126 ft | 290 kts | 271° |
| 2025-09-09 14:24 | 40.62126 | 49.78704 | 10236 ft | 292 kts | 273° |
| 2025-09-09 14:24 | 40.62698 | 49.69792 | 11628 ft | 368 kts | 273° |
| 2025-09-09 14:25 | 40.63115 | 49.62929 | 13535 ft | 380 kts | 273° |
| 2025-09-09 14:25 | 40.63253 | 49.60628 | 14231 ft | 381 kts | 273° |
| 2025-09-09 14:26 | 40.63665 | 49.53659 | 16222 ft | 384 kts | 273° |
| 2025-09-09 14:26 | 40.64075 | 49.46564 | 18017 ft | 392 kts | 273° |
| 2025-09-09 14:27 | 40.64484 | 49.39353 | 19649 ft | 397 kts | 273° |
| 2025-09-09 14:27 | 40.64894 | 49.32053 | 21208 ft | 403 kts | 273° |
| 2025-09-09 14:28 | 40.65305 | 49.24628 | 22724 ft | 410 kts | 272° |
| 2025-09-09 14:28 | 40.65925 | 49.13267 | 24667 ft | 420 kts | 272° |
| 2025-09-09 14:29 | 40.66133 | 49.09420 | 25269 ft | 423 kts | 272° |
| 2025-09-09 14:31 | 40.67800 | 48.77594 | 29654 ft | 450 kts | 271° |
| 2025-09-09 14:33 | 40.69378 | 48.45961 | 34996 ft | 415 kts | 270° |
| 2025-09-09 14:35 | 40.70786 | 48.15915 | 37920 ft | 411 kts | 270° |
| 2025-09-09 14:37 | 40.72144 | 47.85235 | 37930 ft | 422 kts | 269° |
| 2025-09-09 14:39 | 40.73421 | 47.54434 | 37910 ft | 421 kts | 269° |
| 2025-09-09 14:41 | 40.78356 | 47.24006 | 37891 ft | 434 kts | 283° |
| 2025-09-09 14:43 | 40.86619 | 46.94208 | 37912 ft | 433 kts | 283° |
| 2025-09-09 14:45 | 40.94757 | 46.64291 | 37916 ft | 432 kts | 282° |
| 2025-09-09 14:47 | 41.04892 | 46.35103 | 37937 ft | 442 kts | 289° |
| 2025-09-09 14:49 | 41.16405 | 46.06183 | 37940 ft | 444 kts | 289° |
| 2025-09-09 14:51 | 41.27823 | 45.77166 | 37939 ft | 447 kts | 288° |
| 2025-09-09 14:53 | 41.39303 | 45.47702 | 37951 ft | 446 kts | 288° |
| 2025-09-09 14:55 | 41.49782 | 45.18813 | 37969 ft | 438 kts | 283° |
| 2025-09-09 14:57 | 41.59191 | 44.88815 | 37967 ft | 441 kts | 283° |
| 2025-09-09 14:59 | 41.68649 | 44.58435 | 37974 ft | 443 kts | 283° |
| 2025-09-09 15:01 | 41.78031 | 44.27946 | 38036 ft | 444 kts | 283° |
| 2025-09-09 15:03 | 41.87341 | 43.97317 | 38034 ft | 448 kts | 282° |
| 2025-09-09 15:05 | 41.96692 | 43.66249 | 38020 ft | 448 kts | 282° |
| 2025-09-09 15:07 | 42.05933 | 43.35130 | 38013 ft | 449 kts | 283° |
| 2025-09-09 15:09 | 42.15002 | 43.03678 | 38021 ft | 451 kts | 282° |
| 2025-09-09 15:11 | 42.23972 | 42.71998 | 37965 ft | 454 kts | 282° |
| 2025-09-09 15:13 | 42.33657 | 42.37346 | 37995 ft | 456 kts | 282° |
| 2025-09-09 15:15 | 42.41425 | 42.09198 | 37961 ft | 457 kts | 282° |
| 2025-09-09 15:17 | 42.50250 | 41.76819 | 37953 ft | 462 kts | 282° |
| 2025-09-09 15:19 | 42.59062 | 41.44070 | 37977 ft | 463 kts | 282° |
| 2025-09-09 15:21 | 42.67851 | 41.10949 | 37997 ft | 468 kts | 283° |
| 2025-09-09 15:23 | 42.76648 | 40.77339 | 37979 ft | 476 kts | 283° |
| 2025-09-09 15:25 | 42.85438 | 40.43276 | 37959 ft | 478 kts | 284° |
| 2025-09-09 15:27 | 42.94237 | 40.08682 | 37960 ft | 486 kts | 285° |
| 2025-09-09 15:29 | 43.02994 | 39.73736 | 37950 ft | 490 kts | 285° |
| 2025-09-09 15:31 | 43.11735 | 39.38317 | 37945 ft | 492 kts | 285° |
| 2025-09-09 15:33 | 43.20392 | 39.02680 | 37933 ft | 495 kts | 285° |
| 2025-09-09 15:35 | 43.23252 | 38.66795 | 37945 ft | 482 kts | 246° |
| 2025-09-09 15:37 | 43.11863 | 38.28286 | 37931 ft | 486 kts | 247° |
| 2025-09-09 15:39 | 43.03410 | 37.99154 | 37927 ft | 485 kts | 247° |